Time;durP1;ratioP1;P1;durP2;ratioP2;P2;SDS_P1;SDS_P2;PMS_P1;PMS_P2;Temp;Humidity;BMP_temperature;BMP_pressure;BME280_temperature;BME280_humidity;BME280_pressure;Samples;Min_cycle;Max_cycle;Signal;HPM_P1;HPM_P2
2023/12/01 00:01:56;;;;;;;52.58;46.55;;;9.40;99.90;;;;;;4990713;28;20062;-62
2023/12/01 00:04:21;;;;;;;59.38;50.83;;;9.30;99.90;;;;;;5008866;28;20066;-61
2023/12/01 00:06:47;;;;;;;58.17;50.05;;;8.90;99.90;;;;;;4995649;28;20046;-62
2023/12/01 00:09:12;;;;;;;55.85;47.88;;;9.20;99.90;;;;;;4989076;28;20054;-62
2023/12/01 00:11:38;;;;;;;64.05;49.20;;;9.00;99.90;;;;;;4989076;28;20077;-63
2023/12/01 00:14:03;;;;;;;58.63;50.33;;;9.40;99.90;;;;;;4989279;28;20057;-63
2023/12/01 00:16:29;;;;;;;55.97;48.97;;;9.40;99.90;;;;;;4989282;28;20505;-63
2023/12/01 00:18:54;;;;;;;55.85;49.58;;;9.20;99.90;;;;;;4989608;28;20045;-62
2023/12/01 00:21:20;;;;;;;58.30;50.50;;;8.80;99.90;;;;;;5016390;28;20898;-62
2023/12/01 00:23:45;;;;;;;68.35;51.90;;;9.50;99.90;;;;;;5005179;28;20074;-62
2023/12/01 00:26:11;;;;;;;56.72;50.45;;;9.10;99.90;;;;;;4989647;28;20042;-61
2023/12/01 00:28:36;;;;;;;64.65;51.20;;;9.00;99.90;;;;;;4989552;28;20042;-61
2023/12/01 00:31:02;;;;;;;56.85;48.25;;;9.30;99.90;;;;;;4989720;28;20049;-62
2023/12/01 00:33:28;;;;;;;57.78;50.08;;;9.00;99.90;;;;;;4992675;28;20041;-64
2023/12/01 00:35:53;;;;;;;66.47;52.25;;;9.50;99.90;;;;;;5002434;28;20046;-63
2023/12/01 00:38:19;;;;;;;55.35;49.42;;;9.50;99.90;;;;;;4989017;28;20046;-62
2023/12/01 00:40:45;;;;;;;56.88;47.67;;;8.90;99.90;;;;;;4989039;28;20034;-63
2023/12/01 00:43:12;;;;;;;62.50;47.35;;;9.20;99.90;;;;;;4988266;28;20046;-62
2023/12/01 00:45:37;;;;;;;63.92;48.50;;;9.00;99.90;;;;;;4988593;28;20053;-61
2023/12/01 00:48:03;;;;;;;59.33;48.70;;;8.90;99.90;;;;;;4988941;28;20042;-62
2023/12/01 00:50:29;;;;;;;62.90;48.53;;;8.90;99.90;;;;;;4981600;28;20540;-63
2023/12/01 00:52:54;;;;;;;60.55;46.70;;;8.90;99.90;;;;;;4997049;28;20147;-62
2023/12/01 00:55:20;;;;;;;66.75;52.13;;;9.20;99.90;;;;;;4986651;28;20046;-64
2023/12/01 00:57:46;;;;;;;61.58;52.15;;;9.20;99.90;;;;;;4988805;28;20104;-64
2023/12/01 01:00:11;;;;;;;70.05;51.97;;;9.50;99.90;;;;;;4989067;28;20484;-64
2023/12/01 01:02:37;;;;;;;67.68;50.38;;;9.50;99.90;;;;;;4988159;28;20054;-64
2023/12/01 01:05:03;;;;;;;66.82;53.20;;;9.00;99.90;;;;;;4989812;28;20149;-65
2023/12/01 01:07:28;;;;;;;64.25;51.55;;;9.30;99.90;;;;;;5005094;28;20131;-64
2023/12/01 01:09:54;;;;;;;63.05;51.13;;;9.40;99.90;;;;;;5008093;28;20053;-64
2023/12/01 01:12:20;;;;;;;68.45;50.38;;;9.20;99.90;;;;;;4996842;28;20038;-64
2023/12/01 01:14:46;;;;;;;135.98;53.75;;;8.90;99.90;;;;;;4986110;28;20489;-64
2023/12/01 01:17:12;;;;;;;63.13;50.40;;;9.40;99.90;;;;;;4988623;28;20137;-64
2023/12/01 01:19:37;;;;;;;71.20;53.00;;;9.60;99.90;;;;;;4987028;28;20559;-64
2023/12/01 01:22:03;;;;;;;69.88;48.72;;;8.90;99.90;;;;;;4992751;28;20039;-63
2023/12/01 01:24:28;;;;;;;62.78;49.58;;;9.50;99.90;;;;;;4997740;28;20050;-65
2023/12/01 01:26:54;;;;;;;67.18;48.33;;;9.00;99.90;;;;;;4997920;28;20412;-64
2023/12/01 01:29:20;;;;;;;59.55;45.88;;;8.80;99.90;;;;;;4988330;28;20046;-64
2023/12/01 01:31:45;;;;;;;57.10;49.00;;;8.90;99.90;;;;;;4988554;28;20465;-64
2023/12/01 01:34:11;;;;;;;61.22;49.65;;;9.40;99.90;;;;;;4987982;28;20042;-65
2023/12/01 01:36:36;;;;;;;55.88;45.00;;;9.30;99.90;;;;;;4988022;28;20050;-64
2023/12/01 01:39:02;;;;;;;57.80;46.50;;;8.90;99.90;;;;;;4986628;28;20057;-65
2023/12/01 01:41:28;;;;;;;53.63;44.65;;;9.40;99.90;;;;;;4995321;28;20082;-64
2023/12/01 01:43:53;;;;;;;53.83;41.90;;;8.40;99.90;;;;;;4986122;28;20046;-64
2023/12/01 01:46:20;;;;;;;60.20;46.13;;;7.90;99.90;;;;;;4987294;28;20116;-64
2023/12/01 01:48:46;;;;;;;62.80;51.85;;;7.60;99.90;;;;;;4990421;28;20033;-64
2023/12/01 01:51:13;;;;;;;62.85;52.88;;;7.40;99.90;;;;;;5001609;28;20052;-63
2023/12/01 01:53:43;;;;;;;62.38;49.40;;;8.00;99.90;;;;;;4995880;28;20440;-64
2023/12/01 01:56:12;;;;;;;61.30;47.63;;;8.30;99.90;;;;;;5006775;28;20038;-64
2023/12/01 01:58:38;;;;;;;52.70;44.95;;;8.40;99.90;;;;;;5002169;28;20042;-64
2023/12/01 02:01:03;;;;;;;53.88;45.53;;;8.70;99.90;;;;;;4986854;28;20077;-65
2023/12/01 02:03:29;;;;;;;58.40;45.75;;;8.90;99.90;;;;;;4985913;28;20504;-64
2023/12/01 02:05:55;;;;;;;56.60;44.88;;;8.60;99.90;;;;;;4987354;28;20038;-64
2023/12/01 02:08:24;;;;;;;54.50;45.72;;;8.80;99.90;;;;;;4986980;28;20038;-64
2023/12/01 02:10:51;;;;;;;53.70;46.00;;;8.60;99.90;;;;;;4986698;28;20504;-64
2023/12/01 02:13:17;;;;;;;51.50;45.50;;;9.20;99.90;;;;;;4987157;28;20113;-64
2023/12/01 02:15:43;;;;;;;50.97;43.75;;;9.20;99.90;;;;;;4987223;28;20045;-64
2023/12/01 02:18:21;;;;;;;52.42;43.97;;;9.20;99.90;;;;;;4993356;28;20157;-64
2023/12/01 02:20:47;;;;;;;49.97;43.17;;;8.60;99.90;;;;;;4987039;28;20046;-64
2023/12/01 02:23:13;;;;;;;55.17;46.40;;;8.50;99.90;;;;;;4987142;28;20425;-64
2023/12/01 02:25:38;;;;;;;56.25;50.17;;;8.10;99.90;;;;;;4987683;28;20207;-64
2023/12/01 02:28:04;;;;;;;62.28;53.25;;;7.80;99.90;;;;;;4985348;28;20568;-63
2023/12/01 02:30:30;;;;;;;62.00;52.15;;;7.40;99.90;;;;;;4986736;28;20077;-64
2023/12/01 02:32:55;;;;;;;58.38;48.85;;;7.60;99.90;;;;;;4987488;28;20042;-63
2023/12/01 02:35:29;;;;;;;57.00;46.55;;;8.20;99.90;;;;;;4989924;28;20096;-64
2023/12/01 02:37:55;;;;;;;54.55;43.58;;;8.20;99.90;;;;;;4989141;28;20042;-64
2023/12/01 02:40:22;;;;;;;57.55;44.55;;;8.70;99.90;;;;;;4985787;28;20046;-65
2023/12/01 02:42:49;;;;;;;60.38;45.33;;;8.30;99.90;;;;;;4986486;28;20046;-64
2023/12/01 02:45:16;;;;;;;55.83;43.65;;;8.40;99.90;;;;;;4987887;28;20108;-64
2023/12/01 02:47:43;;;;;;;52.78;43.08;;;8.90;99.90;;;;;;4986308;28;20041;-64
2023/12/01 02:50:09;;;;;;;53.25;45.90;;;8.90;99.90;;;;;;5001287;28;20351;-64
2023/12/01 02:52:36;;;;;;;50.10;44.67;;;8.60;99.90;;;;;;4986839;28;20088;-64
2023/12/01 02:55:02;;;;;;;53.38;46.95;;;8.30;99.90;;;;;;4987049;28;20042;-64
2023/12/01 02:57:28;;;;;;;51.00;45.47;;;8.10;99.90;;;;;;4986084;28;20893;-64
2023/12/01 02:59:53;;;;;;;58.10;52.15;;;8.10;99.90;;;;;;4985275;28;20050;-64
2023/12/01 03:02:19;;;;;;;89.40;55.58;;;7.60;99.90;;;;;;4986719;28;20061;-64
2023/12/01 03:04:44;;;;;;;67.80;50.65;;;8.10;99.90;;;;;;4969504;28;20223;-63
2023/12/01 03:07:10;;;;;;;68.90;51.22;;;8.00;99.90;;;;;;5005779;28;20049;-64
2023/12/01 03:09:36;;;;;;;58.63;48.55;;;7.90;99.90;;;;;;4987673;28;20402;-64
2023/12/01 03:12:03;;;;;;;62.65;46.92;;;7.90;99.90;;;;;;4986954;28;20050;-64
2023/12/01 03:14:29;;;;;;;57.78;47.70;;;7.90;99.90;;;;;;4986728;28;20531;-64
2023/12/01 03:16:56;;;;;;;61.58;49.78;;;8.20;99.90;;;;;;4986692;28;20046;-63
2023/12/01 03:19:22;;;;;;;56.78;46.78;;;8.40;99.90;;;;;;5004659;28;20420;-63
2023/12/01 03:21:48;;;;;;;63.67;46.45;;;7.90;99.90;;;;;;4989806;28;20050;-63
2023/12/01 03:24:14;;;;;;;62.10;49.40;;;7.90;99.90;;;;;;5004188;28;20038;-63
2023/12/01 03:26:39;;;;;;;58.22;47.13;;;7.80;99.90;;;;;;4990047;28;20038;-64
2023/12/01 03:29:05;;;;;;;56.13;46.20;;;8.20;99.90;;;;;;4995872;28;20038;-63
2023/12/01 03:31:30;;;;;;;55.83;47.10;;;7.60;99.90;;;;;;4990214;28;20070;-63
2023/12/01 03:33:56;;;;;;;54.42;47.25;;;7.60;99.90;;;;;;4990323;28;20103;-63
2023/12/01 03:36:21;;;;;;;54.15;48.47;;;7.10;86.80;;;;;;4990093;28;20541;-63
2023/12/01 03:38:48;;;;;;;63.58;55.70;;;7.30;1.00;;;;;;4989962;28;20050;-63
2023/12/01 03:41:14;;;;;;;67.15;55.30;;;7.10;99.90;;;;;;4989606;28;20077;-64
2023/12/01 03:43:39;;;;;;;1594.85;101.97;;;7.00;99.90;;;;;;4999858;28;20461;-63
2023/12/01 03:46:05;;;;;;;63.97;49.95;;;6.80;99.90;;;;;;4989868;28;20039;-63
2023/12/01 03:48:33;;;;;;;65.20;49.88;;;7.20;1.00;;;;;;4989734;28;20500;-63
2023/12/01 03:50:59;;;;;;;137.02;54.05;;;6.90;99.90;;;;;;5004629;28;20053;-63
2023/12/01 03:53:25;;;;;;;65.43;49.85;;;7.30;99.90;;;;;;4987972;28;20062;-63
2023/12/01 03:55:51;;;;;;;62.42;47.38;;;6.90;99.90;;;;;;4989729;28;20492;-63
2023/12/01 03:58:17;;;;;;;63.47;51.05;;;7.00;99.90;;;;;;5007015;28;20057;-63
2023/12/01 04:00:43;;;;;;;65.05;50.20;;;7.40;99.90;;;;;;5009506;28;20057;-63
2023/12/01 04:03:08;;;;;;;97.72;48.92;;;7.40;1.00;;;;;;5009555;28;20050;-63
2023/12/01 04:05:34;;;;;;;69.28;50.83;;;7.60;1.00;;;;;;4989602;28;20105;-63
2023/12/01 04:07:59;;;;;;;81.93;50.13;;;7.30;1.00;;;;;;4988364;28;20050;-62
2023/12/01 04:10:25;;;;;;;64.35;47.85;;;7.30;1.00;;;;;;4989447;28;20042;-63
2023/12/01 04:12:51;;;;;;;62.30;53.28;;;7.00;99.90;;;;;;5009162;28;20408;-63
2023/12/01 04:15:18;;;;;;;62.25;55.47;;;6.50;1.00;;;;;;4990060;28;20125;-63
2023/12/01 04:17:46;;;;;;;68.95;59.38;;;6.30;1.00;;;;;;4990047;28;20038;-63
2023/12/01 04:20:26;;;;;;;1999.90;129.63;;;6.00;1.00;;;;;;4989644;28;20038;-63
2023/12/01 04:23:00;;;;;;;66.35;49.97;;;6.10;99.90;;;;;;4991746;28;20050;-63
2023/12/01 04:25:26;;;;;;;67.22;52.78;;;6.70;23.00;;;;;;5009288;28;20044;-62
2023/12/01 04:27:53;;;;;;;69.43;52.90;;;6.50;1.00;;;;;;5007013;28;20038;-64
2023/12/01 04:30:20;;;;;;;67.97;51.05;;;6.80;1.00;;;;;;4988653;28;20045;-63
2023/12/01 04:32:53;;;;;;;70.07;51.20;;;6.50;1.00;;;;;;4988953;28;20038;-63
2023/12/01 04:35:32;;;;;;;86.88;50.60;;;6.50;1.00;;;;;;4989340;28;20053;-62
2023/12/01 04:37:59;;;;;;;78.22;52.95;;;6.50;1.00;;;;;;5003736;28;20061;-63
2023/12/01 04:40:27;;;;;;;71.22;49.42;;;6.70;1.00;;;;;;4988683;28;20046;-63
2023/12/01 04:42:54;;;;;;;99.68;51.03;;;6.40;10.10;;;;;;4991977;28;20041;-62
2023/12/01 04:45:22;;;;;;;82.55;47.97;;;6.50;18.40;;;;;;5008219;28;20034;-62
2023/12/01 04:47:52;;;;;;;159.05;49.83;;;6.90;30.00;;;;;;4979983;28;20055;-63
2023/12/01 04:50:23;;;;;;;80.68;47.95;;;6.30;1.00;;;;;;4968555;28;20068;-63
2023/12/01 04:52:54;;;;;;;72.65;42.63;;;6.70;2.30;;;;;;4999481;28;20274;-63
2023/12/01 04:55:22;;;;;;;67.35;42.83;;;5.80;99.90;;;;;;4988826;28;20077;-62
2023/12/01 04:57:48;;;;;;;1280.95;94.43;;;6.00;94.40;;;;;;4993397;28;20508;-63
2023/12/01 05:00:22;;;;;;;66.95;48.55;;;5.70;99.90;;;;;;5007566;28;20052;-62
2023/12/01 05:03:06;;;;;;;331.70;52.72;;;6.40;1.00;;;;;;5003294;28;20416;-62
2023/12/01 05:05:34;;;;;;;143.73;55.10;;;6.30;1.00;;;;;;4999967;28;20042;-64
2023/12/01 05:08:04;;;;;;;138.43;52.45;;;6.50;41.40;;;;;;4988797;28;20042;-63
2023/12/01 05:10:31;;;;;;;69.22;48.35;;;6.30;65.40;;;;;;4988393;28;20042;-63
2023/12/01 05:12:59;;;;;;;60.80;46.35;;;6.60;86.60;;;;;;4988373;28;20046;-63
2023/12/01 05:15:27;;;;;;;65.32;44.97;;;6.20;84.40;;;;;;4999424;28;20042;-63
2023/12/01 05:17:57;;;;;;;69.40;47.95;;;6.60;99.00;;;;;;5008485;28;20077;-62
2023/12/01 05:20:25;;;;;;;66.43;51.50;;;6.50;99.90;;;;;;4995258;28;20046;-62
2023/12/01 05:23:05;;;;;;;499.23;52.45;;;6.40;99.90;;;;;;4987786;28;20046;-62
2023/12/01 05:25:34;;;;;;;478.02;55.13;;;6.60;99.90;;;;;;4988423;28;20038;-62
2023/12/01 05:28:01;;;;;;;111.07;52.17;;;6.40;97.60;;;;;;4988066;28;20044;-63
2023/12/01 05:30:28;;;;;;;70.47;54.53;;;6.40;99.40;;;;;;4988196;28;20077;-62
2023/12/01 05:32:55;;;;;;;62.08;50.10;;;6.30;99.90;;;;;;4988106;28;20046;-62
2023/12/01 05:35:21;;;;;;;77.15;48.17;;;6.10;99.90;;;;;;4987985;28;20042;-62
2023/12/01 05:37:49;;;;;;;71.78;54.35;;;6.40;99.90;;;;;;4987782;28;20057;-62
2023/12/01 05:40:17;;;;;;;67.47;49.90;;;6.00;99.90;;;;;;4988571;28;20042;-63
2023/12/01 05:42:44;;;;;;;68.93;47.90;;;6.40;99.90;;;;;;4986497;28;20046;-63
2023/12/01 05:45:11;;;;;;;178.93;49.33;;;6.40;99.90;;;;;;4990598;28;20046;-62
2023/12/01 05:47:47;;;;;;;323.83;56.72;;;6.00;99.90;;;;;;4987164;28;20049;-62
2023/12/01 05:50:17;;;;;;;256.42;49.13;;;6.00;99.90;;;;;;4972842;28;20158;-62
2023/12/01 05:52:45;;;;;;;196.88;49.92;;;6.20;99.90;;;;;;4978371;28;20049;-62
2023/12/01 05:55:23;;;;;;;91.78;48.35;;;5.70;99.90;;;;;;4968058;28;20126;-62
2023/12/01 05:57:50;;;;;;;150.95;46.30;;;5.90;23.90;;;;;;4966871;28;20093;-62
2023/12/01 06:00:21;;;;;;;122.90;48.47;;;5.20;1.00;;;;;;4987711;28;20053;-62
2023/12/01 06:02:48;;;;;;;114.88;42.35;;;5.10;1.00;;;;;;4987240;28;20108;-62
2023/12/01 06:05:15;;;;;;;50.85;39.53;;;5.00;1.00;;;;;;4987158;28;20035;-62
2023/12/01 06:07:43;;;;;;;73.93;40.65;;;5.30;99.90;;;;;;4995985;28;20052;-62
2023/12/01 06:10:10;;;;;;;49.05;44.03;;;4.70;99.90;;;;;;4989037;28;20042;-63
2023/12/01 06:12:38;;;;;;;318.50;42.33;;;5.10;99.90;;;;;;4987188;28;20049;-62
2023/12/01 06:15:06;;;;;;;290.13;43.65;;;4.60;99.90;;;;;;4987061;28;20440;-62
2023/12/01 06:17:32;;;;;;;212.48;42.10;;;4.50;99.90;;;;;;4987420;28;20508;-62
2023/12/01 06:19:57;;;;;;;358.63;42.08;;;4.80;99.90;;;;;;4987001;28;20053;-62
2023/12/01 06:22:23;;;;;;;536.40;58.40;;;4.90;99.90;;;;;;4986998;28;20057;-61
2023/12/01 06:24:49;;;;;;;558.72;54.53;;;4.50;99.90;;;;;;4986891;28;20038;-62
2023/12/01 06:27:14;;;;;;;322.73;46.92;;;4.70;99.90;;;;;;4986501;28;20034;-62
2023/12/01 06:29:40;;;;;;;224.15;40.47;;;4.80;99.90;;;;;;5001778;28;20034;-62
2023/12/01 06:32:06;;;;;;;361.70;49.13;;;4.10;99.90;;;;;;5006575;28;20512;-62
2023/12/01 06:34:33;;;;;;;228.55;50.50;;;4.00;99.90;;;;;;4995574;28;20046;-62
2023/12/01 06:36:59;;;;;;;91.45;38.58;;;3.70;99.90;;;;;;4986611;28;20054;-62
2023/12/01 06:39:26;;;;;;;133.82;40.53;;;4.00;99.90;;;;;;4986747;28;20596;-62
2023/12/01 06:41:55;;;;;;;211.68;42.80;;;3.70;99.90;;;;;;4986928;28;20050;-62
2023/12/01 06:44:20;;;;;;;248.63;42.80;;;4.20;1.00;;;;;;4986422;28;20038;-62
2023/12/01 06:46:46;;;;;;;324.02;43.67;;;4.00;1.00;;;;;;4982167;28;20458;-62
2023/12/01 06:49:12;;;;;;;299.20;43.55;;;4.10;91.10;;;;;;4986314;28;20042;-62
2023/12/01 06:51:38;;;;;;;353.65;53.20;;;4.60;99.90;;;;;;4985832;28;20125;-62
2023/12/01 06:54:04;;;;;;;438.02;46.72;;;4.40;99.90;;;;;;4982934;28;20084;-62
2023/12/01 06:56:29;;;;;;;472.38;50.22;;;4.50;99.90;;;;;;4985738;28;20054;-61
2023/12/01 06:58:55;;;;;;;354.10;49.70;;;4.50;1.00;;;;;;4985723;28;20113;-60
2023/12/01 07:01:21;;;;;;;155.43;45.70;;;4.00;3.40;;;;;;4983849;28;20085;-60
2023/12/01 07:03:50;;;;;;;710.38;61.50;;;3.60;99.90;;;;;;4985163;28;20077;-59
2023/12/01 07:06:16;;;;;;;373.98;50.95;;;4.00;1.00;;;;;;4987030;28;20160;-63
2023/12/01 07:08:41;;;;;;;232.50;44.20;;;4.30;27.80;;;;;;4986379;28;20454;-63
2023/12/01 07:11:07;;;;;;;293.27;45.40;;;4.50;99.90;;;;;;4985728;28;20116;-62
2023/12/01 07:13:33;;;;;;;414.63;50.17;;;4.80;99.90;;;;;;4985699;28;20176;-62
2023/12/01 07:15:59;;;;;;;312.40;46.90;;;4.50;1.00;;;;;;4986385;28;20140;-61
2023/12/01 07:18:25;;;;;;;414.30;47.63;;;5.20;1.00;;;;;;4988834;28;20034;-62
2023/12/01 07:20:51;;;;;;;150.63;47.05;;;4.90;40.10;;;;;;4983166;28;20061;-62
2023/12/01 07:23:19;;;;;;;547.88;65.43;;;5.40;99.90;;;;;;4985200;28;20043;-62
2023/12/01 07:25:50;;;;;;;88.07;46.50;;;5.60;99.90;;;;;;4981139;28;20042;-62
2023/12/01 07:28:15;;;;;;;101.07;54.05;;;5.50;99.90;;;;;;4984283;28;20049;-62
2023/12/01 07:30:41;;;;;;;69.22;52.47;;;5.60;99.90;;;;;;4981841;28;20057;-62
2023/12/01 07:33:08;;;;;;;118.57;60.25;;;5.00;57.50;;;;;;4987139;28;20042;-62
2023/12/01 07:35:34;;;;;;;79.38;53.80;;;4.30;99.90;;;;;;4984972;28;20043;-63
2023/12/01 07:38:00;;;;;;;480.05;66.70;;;4.70;99.90;;;;;;4986042;28;20034;-63
2023/12/01 07:40:27;;;;;;;230.25;52.22;;;5.20;99.90;;;;;;4985984;28;20034;-63
2023/12/01 07:42:55;;;;;;;172.57;54.55;;;5.30;99.90;;;;;;4985291;28;20125;-63
2023/12/01 07:45:21;;;;;;;110.13;49.45;;;5.10;99.90;;;;;;4984285;28;20078;-63
2023/12/01 07:47:49;;;;;;;102.32;54.45;;;5.10;99.90;;;;;;4983007;28;20153;-62
2023/12/01 07:50:15;;;;;;;637.40;70.63;;;5.20;1.00;;;;;;4983684;28;20039;-62
2023/12/01 07:52:49;;;;;;;110.03;53.53;;;5.30;1.00;;;;;;4982450;28;20133;-62
2023/12/01 07:55:15;;;;;;;78.03;50.35;;;5.90;1.00;;;;;;4984432;28;20170;-63
2023/12/01 07:57:41;;;;;;;61.42;48.00;;;5.70;50.30;;;;;;4984892;28;20038;-62
2023/12/01 08:00:14;;;;;;;60.63;48.53;;;6.00;90.20;;;;;;4984312;28;20053;-63
2023/12/01 08:02:41;;;;;;;357.33;55.45;;;6.20;90.50;;;;;;4984160;28;20070;-63
2023/12/01 08:05:13;;;;;;;84.38;52.47;;;6.00;70.70;;;;;;4986548;28;20108;-63
2023/12/01 08:07:40;;;;;;;262.42;54.20;;;5.80;23.10;;;;;;4985985;28;20070;-62
2023/12/01 08:10:06;;;;;;;73.05;54.45;;;5.40;42.60;;;;;;4991378;28;20507;-62
2023/12/01 08:12:32;;;;;;;63.42;50.70;;;5.40;48.90;;;;;;4988696;28;20412;-62
2023/12/01 08:14:58;;;;;;;55.35;47.67;;;5.80;64.40;;;;;;4987284;28;20042;-63
2023/12/01 08:17:24;;;;;;;59.92;48.30;;;5.50;58.90;;;;;;4985384;28;20038;-65
2023/12/01 08:19:50;;;;;;;60.25;45.50;;;4.70;1.00;;;;;;4985308;28;20042;-64
2023/12/01 08:22:17;;;;;;;56.47;48.72;;;4.70;99.90;;;;;;4987626;28;20042;-65
2023/12/01 08:24:42;;;;;;;64.72;52.05;;;4.80;99.90;;;;;;4987629;28;20480;-65
2023/12/01 08:27:08;;;;;;;65.45;49.53;;;4.60;99.90;;;;;;4986043;28;20045;-65
2023/12/01 08:29:33;;;;;;;234.05;47.95;;;4.80;1.00;;;;;;4988565;28;20053;-66
2023/12/01 08:32:00;;;;;;;197.30;50.70;;;5.40;1.00;;;;;;4988830;28;20129;-65
2023/12/01 08:34:25;;;;;;;332.83;52.13;;;5.30;1.00;;;;;;4988150;28;20046;-66
2023/12/01 08:36:51;;;;;;;199.20;51.08;;;5.20;1.00;;;;;;4987928;28;20041;-64
2023/12/01 08:39:16;;;;;;;293.10;47.67;;;5.20;1.00;;;;;;4987557;28;20038;-65
2023/12/01 08:41:42;;;;;;;107.43;48.00;;;5.70;32.50;;;;;;4989211;28;20082;-65
2023/12/01 08:44:07;;;;;;;148.50;48.35;;;5.90;85.10;;;;;;4982798;28;20075;-65
2023/12/01 08:46:33;;;;;;;248.32;48.78;;;5.50;99.90;;;;;;4987826;28;20463;-65
2023/12/01 08:48:58;;;;;;;490.17;53.83;;;5.80;99.90;;;;;;4988533;28;20046;-63
2023/12/01 08:51:24;;;;;;;144.30;46.22;;;5.90;99.90;;;;;;4986429;28;20145;-65
2023/12/01 08:53:49;;;;;;;69.63;51.92;;;6.00;99.90;;;;;;4986728;28;20034;-64
2023/12/01 08:56:15;;;;;;;82.60;57.40;;;5.60;99.90;;;;;;4988041;28;20455;-65
2023/12/01 08:58:40;;;;;;;70.22;57.53;;;6.10;99.90;;;;;;4986825;28;20045;-65
2023/12/01 09:01:06;;;;;;;72.95;54.50;;;5.80;99.90;;;;;;5001527;28;20473;-65
2023/12/01 09:03:32;;;;;;;68.88;54.53;;;6.30;99.90;;;;;;4985168;28;20424;-65
2023/12/01 09:05:58;;;;;;;75.50;57.97;;;6.30;99.90;;;;;;4984962;28;20076;-65
2023/12/01 09:08:24;;;;;;;79.38;57.33;;;6.10;99.90;;;;;;4984159;28;20125;-66
2023/12/01 09:10:49;;;;;;;71.03;53.90;;;6.40;99.90;;;;;;4980019;28;20472;-65
2023/12/01 09:13:15;;;;;;;82.40;59.47;;;6.00;99.90;;;;;;4985734;28;20057;-65
2023/12/01 09:15:41;;;;;;;77.38;57.65;;;6.20;99.90;;;;;;4983513;28;20034;-66
2023/12/01 09:18:06;;;;;;;72.68;55.22;;;6.10;99.90;;;;;;4986397;28;20140;-65
2023/12/01 09:20:32;;;;;;;76.93;57.28;;;6.50;99.90;;;;;;4985212;28;20141;-65
2023/12/01 09:22:57;;;;;;;67.45;54.55;;;6.00;99.90;;;;;;4986307;28;20046;-65
2023/12/01 09:25:23;;;;;;;114.95;55.47;;;6.60;99.90;;;;;;4986364;28;20041;-65
2023/12/01 09:27:49;;;;;;;75.13;53.28;;;6.50;99.90;;;;;;4985124;28;20068;-59
2023/12/01 09:30:16;;;;;;;70.47;55.60;;;6.20;99.90;;;;;;4984812;28;20061;-62
2023/12/01 09:32:42;;;;;;;95.32;50.22;;;6.50;99.90;;;;;;4986426;28;20448;-61
2023/12/01 09:35:08;;;;;;;76.43;53.97;;;6.70;99.90;;;;;;4985888;28;20184;-62
2023/12/01 09:37:33;;;;;;;65.90;54.63;;;6.40;99.90;;;;;;4988300;28;20479;-61
2023/12/01 09:40:02;;;;;;;61.17;54.03;;;6.80;99.90;;;;;;4986351;28;20048;-61
2023/12/01 09:42:32;;;;;;;60.35;52.13;;;6.60;99.90;;;;;;4983763;28;20093;-64
2023/12/01 09:44:58;;;;;;;63.25;49.35;;;6.90;99.90;;;;;;4986431;28;20491;-63
2023/12/01 09:47:26;;;;;;;57.05;51.40;;;6.90;99.90;;;;;;4983413;28;20087;-61
2023/12/01 09:49:52;;;;;;;63.40;54.75;;;6.90;99.90;;;;;;4985200;28;20061;-61
2023/12/01 09:52:18;;;;;;;55.65;50.05;;;6.90;99.90;;;;;;4986494;28;20034;-62
2023/12/01 09:54:43;;;;;;;58.45;49.38;;;6.60;99.90;;;;;;4985130;28;20579;-62
2023/12/01 09:57:09;;;;;;;56.10;49.80;;;6.40;99.90;;;;;;4986323;28;20603;-60
2023/12/01 09:59:36;;;;;;;66.13;50.05;;;6.80;99.90;;;;;;4985092;28;20121;-61
2023/12/01 10:02:03;;;;;;;65.22;58.03;;;7.10;99.90;;;;;;5001516;28;20109;-61
2023/12/01 10:04:32;;;;;;;64.88;55.20;;;6.70;99.90;;;;;;4984184;28;20046;-62
2023/12/01 10:06:57;;;;;;;65.05;55.17;;;7.20;99.90;;;;;;4986614;28;20093;-61
2023/12/01 10:09:28;;;;;;;71.15;53.20;;;6.80;99.90;;;;;;4985939;28;20043;-62
2023/12/01 10:12:10;;;;;;;74.75;53.35;;;6.90;99.90;;;;;;4986860;28;20042;-63
2023/12/01 10:14:37;;;;;;;69.53;53.03;;;7.50;99.90;;;;;;4986530;28;20447;-62
2023/12/01 10:17:07;;;;;;;70.18;51.42;;;7.10;99.90;;;;;;4986850;28;20046;-62
2023/12/01 10:19:33;;;;;;;67.55;51.95;;;8.30;99.90;;;;;;4986429;28;20050;-61
2023/12/01 10:22:00;;;;;;;63.22;50.83;;;7.20;99.90;;;;;;4985251;28;20105;-61
2023/12/01 10:24:26;;;;;;;71.75;56.88;;;7.30;99.90;;;;;;4985821;28;20049;-62
2023/12/01 10:26:55;;;;;;;67.55;54.63;;;7.80;99.90;;;;;;4985747;28;20049;-62
2023/12/01 10:29:34;;;;;;;73.30;53.45;;;7.70;99.90;;;;;;4986271;28;20069;-62
2023/12/01 10:32:04;;;;;;;69.45;49.08;;;7.90;99.90;;;;;;4986890;28;20073;-62
2023/12/01 10:34:30;;;;;;;68.85;50.60;;;7.40;99.90;;;;;;4986499;28;20077;-62
2023/12/01 10:36:56;;;;;;;73.63;52.95;;;8.00;99.90;;;;;;4986193;28;20073;-63
2023/12/01 10:39:25;;;;;;;71.75;52.42;;;7.50;99.90;;;;;;4985330;28;20650;-63
2023/12/01 10:41:53;;;;;;;70.55;51.63;;;8.00;99.90;;;;;;4986349;28;20050;-63
2023/12/01 10:44:24;;;;;;;66.68;54.42;;;7.80;99.90;;;;;;4983662;28;20073;-63
2023/12/01 10:46:52;;;;;;;70.50;53.50;;;7.70;99.90;;;;;;4981404;28;20579;-63
2023/12/01 10:49:19;;;;;;;61.78;51.58;;;7.70;99.90;;;;;;4986244;28;20053;-63
2023/12/01 10:51:45;;;;;;;65.65;50.42;;;8.30;99.90;;;;;;4987149;28;20042;-63
2023/12/01 10:54:12;;;;;;;66.45;50.35;;;8.10;99.90;;;;;;4984049;28;20787;-63
2023/12/01 10:57:14;;;;;;;64.18;54.33;;;8.30;99.90;;;;;;4985903;28;20085;-63
2023/12/01 10:59:45;;;;;;;57.75;51.20;;;8.40;99.90;;;;;;4982976;28;20049;-63
2023/12/01 11:02:13;;;;;;;58.47;50.00;;;8.60;99.90;;;;;;4982909;28;20500;-62
2023/12/01 11:04:44;;;;;;;61.85;50.40;;;8.80;99.90;;;;;;4983747;28;20042;-63
2023/12/01 11:07:37;;;;;;;59.47;49.70;;;9.10;99.90;;;;;;4983934;28;20527;-63
2023/12/01 11:10:11;;;;;;;60.03;50.40;;;9.10;99.90;;;;;;4989775;28;20058;-63
2023/12/01 11:12:54;;;;;;;57.53;46.55;;;9.00;99.90;;;;;;4987583;28;20499;-63
2023/12/01 11:15:24;;;;;;;52.25;45.20;;;8.80;99.90;;;;;;4986481;28;20591;-63
2023/12/01 11:17:50;;;;;;;53.92;44.83;;;8.70;99.90;;;;;;5016224;28;20049;-63
2023/12/01 11:20:33;;;;;;;51.28;41.17;;;9.10;99.90;;;;;;4986034;28;20493;-63
2023/12/01 11:23:13;;;;;;;51.95;43.03;;;8.50;99.90;;;;;;4982464;28;20081;-63
2023/12/01 11:25:43;;;;;;;47.15;41.45;;;8.50;99.90;;;;;;4982955;28;20049;-63
2023/12/01 11:31:08;;;;;;;45.50;39.00;;;8.80;99.90;;;;;;4982528;28;20046;-63
2023/12/01 11:33:45;;;;;;;46.45;39.08;;;8.70;99.90;;;;;;4981762;28;20725;-63
2023/12/01 11:36:23;;;;;;;47.60;39.33;;;8.40;99.90;;;;;;4985293;28;20504;-62
2023/12/01 11:41:39;;;;;;;46.53;39.10;;;8.80;99.90;;;;;;4991901;28;20056;-62
2023/12/01 11:44:07;;;;;;;43.53;37.03;;;8.80;99.90;;;;;;4972107;28;20499;-62
2023/12/01 11:46:33;;;;;;;50.28;40.50;;;8.60;99.90;;;;;;4987625;28;20058;-64
2023/12/01 11:48:59;;;;;;;44.92;37.90;;;8.70;99.90;;;;;;4989197;28;20416;-64
2023/12/01 11:51:26;;;;;;;46.72;37.50;;;9.00;99.90;;;;;;4986703;28;20417;-64
2023/12/01 11:53:59;;;;;;;46.35;37.42;;;8.50;99.90;;;;;;4990152;28;20532;-64
2023/12/01 11:56:34;;;;;;;45.05;36.67;;;8.50;99.90;;;;;;4989545;28;20041;-63
2023/12/01 11:59:00;;;;;;;46.55;38.40;;;8.60;99.90;;;;;;5002289;28;20038;-64
2023/12/01 12:01:26;;;;;;;42.70;37.50;;;8.70;99.90;;;;;;4990882;28;20054;-64
2023/12/01 12:03:53;;;;;;;43.75;35.85;;;9.30;99.90;;;;;;4988647;28;20121;-64
2023/12/01 12:06:24;;;;;;;39.72;31.48;;;9.30;99.90;;;;;;4987127;28;20074;-64
2023/12/01 12:08:51;;;;;;;39.47;33.38;;;9.20;99.90;;;;;;4986696;28;20602;-64
2023/12/01 12:11:18;;;;;;;44.65;33.35;;;8.80;99.90;;;;;;4987720;28;20074;-65
2023/12/01 12:13:44;;;;;;;41.33;34.80;;;8.80;99.90;;;;;;4986039;28;20767;-64
2023/12/01 12:16:11;;;;;;;42.45;33.60;;;9.20;99.90;;;;;;4990038;28;20048;-65
2023/12/01 12:18:37;;;;;;;40.65;32.67;;;8.80;99.90;;;;;;4987578;28;20026;-63
2023/12/01 12:21:04;;;;;;;43.38;34.13;;;8.80;99.90;;;;;;4985633;28;20045;-63
2023/12/01 12:23:34;;;;;;;46.20;36.45;;;9.40;99.90;;;;;;4985783;28;20142;-64
2023/12/01 12:26:20;;;;;;;45.20;34.78;;;9.20;99.90;;;;;;4987432;28;20168;-64
2023/12/01 12:28:48;;;;;;;45.97;34.33;;;9.30;99.90;;;;;;4988019;28;20408;-63
2023/12/01 12:31:14;;;;;;;38.28;31.63;;;9.50;99.90;;;;;;4987909;28;20034;-64
2023/12/01 12:33:40;;;;;;;38.72;30.33;;;9.00;99.90;;;;;;4986375;28;20042;-63
2023/12/01 12:36:07;;;;;;;40.08;31.55;;;9.50;99.90;;;;;;4986352;28;20653;-65
2023/12/01 12:38:33;;;;;;;42.60;31.80;;;9.40;99.90;;;;;;4986692;28;20125;-64
2023/12/01 12:41:00;;;;;;;40.63;31.65;;;9.30;99.90;;;;;;4985896;28;20042;-64
2023/12/01 12:43:26;;;;;;;35.70;29.60;;;9.50;99.90;;;;;;4986386;28;20054;-64